sensor_id;sensor_type;location;lat;lon;timestamp;temperature;humidity
2447;DHT22;26430;48.818;9.244;2023-10-31T00:01:03;11.70;99.90
2447;DHT22;26430;48.818;9.244;2023-10-31T00:03:28;11.70;99.90
2447;DHT22;26430;48.818;9.244;2023-10-31T00:05:54;11.70;99.90
2447;DHT22;26430;48.818;9.244;2023-10-31T00:08:19;11.60;99.90
2447;DHT22;26430;48.818;9.244;2023-10-31T00:10:45;11.70;99.90
2447;DHT22;26430;48.818;9.244;2023-10-31T00:13:11;11.80;99.90
2447;DHT22;26430;48.818;9.244;2023-10-31T00:15:37;11.80;99.90
2447;DHT22;26430;48.818;9.244;2023-10-31T00:18:02;11.80;99.90
2447;DHT22;26430;48.818;9.244;2023-10-31T00:20:28;11.80;99.90
2447;DHT22;26430;48.818;9.244;2023-10-31T00:22:54;11.80;99.90
2447;DHT22;26430;48.818;9.244;2023-10-31T00:25:20;11.60;99.90
2447;DHT22;26430;48.818;9.244;2023-10-31T00:27:45;11.60;99.90
2447;DHT22;26430;48.818;9.244;2023-10-31T00:30:11;11.50;99.90
2447;DHT22;26430;48.818;9.244;2023-10-31T00:32:37;11.50;99.90
2447;DHT22;26430;48.818;9.244;2023-10-31T00:35:02;11.50;99.90
2447;DHT22;26430;48.818;9.244;2023-10-31T00:37:28;11.40;99.90
2447;DHT22;26430;48.818;9.244;2023-10-31T00:39:54;11.40;99.90
2447;DHT22;26430;48.818;9.244;2023-10-31T00:42:19;11.50;99.90
2447;DHT22;26430;48.818;9.244;2023-10-31T00:44:45;11.50;99.90
2447;DHT22;26430;48.818;9.244;2023-10-31T00:47:10;11.40;99.90
2447;DHT22;26430;48.818;9.244;2023-10-31T00:49:36;11.40;99.90
2447;DHT22;26430;48.818;9.244;2023-10-31T00:52:01;11.50;99.90
2447;DHT22;26430;48.818;9.244;2023-10-31T00:54:27;11.70;99.90
2447;DHT22;26430;48.818;9.244;2023-10-31T00:56:53;11.70;99.90
2447;DHT22;26430;48.818;9.244;2023-10-31T00:59:18;11.70;99.90
2447;DHT22;26430;48.818;9.244;2023-10-31T01:01:44;11.70;99.90
2447;DHT22;26430;48.818;9.244;2023-10-31T01:04:10;11.70;99.90
2447;DHT22;26430;48.818;9.244;2023-10-31T01:06:42;11.70;99.90
2447;DHT22;26430;48.818;9.244;2023-10-31T01:09:09;11.70;99.90
2447;DHT22;26430;48.818;9.244;2023-10-31T01:11:35;11.70;99.90
2447;DHT22;26430;48.818;9.244;2023-10-31T01:14:01;11.80;99.90
2447;DHT22;26430;48.818;9.244;2023-10-31T01:16:27;11.80;99.90
2447;DHT22;26430;48.818;9.244;2023-10-31T01:18:52;11.90;99.90
2447;DHT22;26430;48.818;9.244;2023-10-31T01:21:18;11.70;99.90
2447;DHT22;26430;48.818;9.244;2023-10-31T01:23:43;11.70;99.90
2447;DHT22;26430;48.818;9.244;2023-10-31T01:26:09;11.70;99.90
2447;DHT22;26430;48.818;9.244;2023-10-31T01:28:34;11.80;99.90
2447;DHT22;26430;48.818;9.244;2023-10-31T01:31:00;11.70;99.90
2447;DHT22;26430;48.818;9.244;2023-10-31T01:33:25;11.80;99.90
2447;DHT22;26430;48.818;9.244;2023-10-31T01:35:51;11.80;99.90
2447;DHT22;26430;48.818;9.244;2023-10-31T01:38:17;11.50;99.90
2447;DHT22;26430;48.818;9.244;2023-10-31T01:40:42;11.50;99.90
2447;DHT22;26430;48.818;9.244;2023-10-31T01:43:08;11.40;99.90
2447;DHT22;26430;48.818;9.244;2023-10-31T01:45:34;11.40;99.90
2447;DHT22;26430;48.818;9.244;2023-10-31T01:47:59;11.40;99.90
2447;DHT22;26430;48.818;9.244;2023-10-31T01:50:25;11.40;99.90
2447;DHT22;26430;48.818;9.244;2023-10-31T01:52:51;11.40;99.90
2447;DHT22;26430;48.818;9.244;2023-10-31T01:55:18;11.30;99.90
2447;DHT22;26430;48.818;9.244;2023-10-31T01:57:45;11.30;99.90
2447;DHT22;26430;48.818;9.244;2023-10-31T02:00:13;11.20;99.90
2447;DHT22;26430;48.818;9.244;2023-10-31T02:02:41;11.10;99.90
2447;DHT22;26430;48.818;9.244;2023-10-31T02:05:08;11.10;99.90
2447;DHT22;26430;48.818;9.244;2023-10-31T02:07:33;11.10;99.90
2447;DHT22;26430;48.818;9.244;2023-10-31T02:09:59;11.10;99.90
2447;DHT22;26430;48.818;9.244;2023-10-31T02:12:34;11.00;99.90
2447;DHT22;26430;48.818;9.244;2023-10-31T02:15:00;11.00;99.90
2447;DHT22;26430;48.818;9.244;2023-10-31T02:17:26;11.10;99.90
2447;DHT22;26430;48.818;9.244;2023-10-31T02:19:52;11.00;99.90
2447;DHT22;26430;48.818;9.244;2023-10-31T02:22:18;10.90;99.90
2447;DHT22;26430;48.818;9.244;2023-10-31T02:24:43;10.90;99.90
2447;DHT22;26430;48.818;9.244;2023-10-31T02:27:09;10.70;99.90
2447;DHT22;26430;48.818;9.244;2023-10-31T02:29:34;10.70;99.90
2447;DHT22;26430;48.818;9.244;2023-10-31T02:32:00;10.70;99.90
2447;DHT22;26430;48.818;9.244;2023-10-31T02:34:25;10.80;99.90
2447;DHT22;26430;48.818;9.244;2023-10-31T02:36:51;10.90;99.90
2447;DHT22;26430;48.818;9.244;2023-10-31T02:39:17;10.90;99.90
2447;DHT22;26430;48.818;9.244;2023-10-31T02:41:43;10.90;99.90
2447;DHT22;26430;48.818;9.244;2023-10-31T02:44:09;10.80;99.90
2447;DHT22;26430;48.818;9.244;2023-10-31T02:46:38;10.90;99.90
2447;DHT22;26430;48.818;9.244;2023-10-31T02:49:03;10.90;99.90
2447;DHT22;26430;48.818;9.244;2023-10-31T02:51:29;10.90;99.90
2447;DHT22;26430;48.818;9.244;2023-10-31T02:53:55;11.10;99.90
2447;DHT22;26430;48.818;9.244;2023-10-31T02:56:20;11.10;99.90
2447;DHT22;26430;48.818;9.244;2023-10-31T02:58:46;10.90;99.90
2447;DHT22;26430;48.818;9.244;2023-10-31T03:01:11;11.00;99.90
2447;DHT22;26430;48.818;9.244;2023-10-31T03:03:37;10.90;99.90
2447;DHT22;26430;48.818;9.244;2023-10-31T03:06:04;10.50;99.90
2447;DHT22;26430;48.818;9.244;2023-10-31T03:08:30;10.40;99.90
2447;DHT22;26430;48.818;9.244;2023-10-31T03:10:56;10.60;99.90
2447;DHT22;26430;48.818;9.244;2023-10-31T03:13:21;10.70;99.90
2447;DHT22;26430;48.818;9.244;2023-10-31T03:15:48;10.70;99.90
2447;DHT22;26430;48.818;9.244;2023-10-31T03:18:13;10.50;99.90
2447;DHT22;26430;48.818;9.244;2023-10-31T03:20:44;10.40;99.90
2447;DHT22;26430;48.818;9.244;2023-10-31T03:23:10;10.50;99.90
2447;DHT22;26430;48.818;9.244;2023-10-31T03:25:36;10.60;99.90
2447;DHT22;26430;48.818;9.244;2023-10-31T03:28:02;10.70;99.90
2447;DHT22;26430;48.818;9.244;2023-10-31T03:30:27;10.80;99.90
2447;DHT22;26430;48.818;9.244;2023-10-31T03:32:53;10.80;99.90
2447;DHT22;26430;48.818;9.244;2023-10-31T03:35:18;10.70;99.90
2447;DHT22;26430;48.818;9.244;2023-10-31T03:37:44;10.80;99.90
2447;DHT22;26430;48.818;9.244;2023-10-31T03:40:10;11.00;99.90
2447;DHT22;26430;48.818;9.244;2023-10-31T03:42:35;11.00;99.90
2447;DHT22;26430;48.818;9.244;2023-10-31T03:45:01;10.90;99.90
2447;DHT22;26430;48.818;9.244;2023-10-31T03:47:27;10.90;99.90
2447;DHT22;26430;48.818;9.244;2023-10-31T03:49:52;11.00;99.90
2447;DHT22;26430;48.818;9.244;2023-10-31T03:52:18;11.00;99.90
2447;DHT22;26430;48.818;9.244;2023-10-31T03:54:45;11.00;99.90
2447;DHT22;26430;48.818;9.244;2023-10-31T03:57:10;11.10;99.90
2447;DHT22;26430;48.818;9.244;2023-10-31T03:59:39;11.00;99.90
2447;DHT22;26430;48.818;9.244;2023-10-31T04:02:05;11.00;99.90
2447;DHT22;26430;48.818;9.244;2023-10-31T04:04:30;11.10;99.90
2447;DHT22;26430;48.818;9.244;2023-10-31T04:06:56;11.10;99.90
2447;DHT22;26430;48.818;9.244;2023-10-31T04:09:21;10.90;99.90
2447;DHT22;26430;48.818;9.244;2023-10-31T04:11:47;11.00;99.90
2447;DHT22;26430;48.818;9.244;2023-10-31T04:14:12;11.00;99.90
2447;DHT22;26430;48.818;9.244;2023-10-31T04:16:41;11.00;99.90
2447;DHT22;26430;48.818;9.244;2023-10-31T04:19:12;11.10;99.90
2447;DHT22;26430;48.818;9.244;2023-10-31T04:21:38;11.20;99.90
2447;DHT22;26430;48.818;9.244;2023-10-31T04:24:04;11.10;99.90
2447;DHT22;26430;48.818;9.244;2023-10-31T04:26:30;11.00;99.90
2447;DHT22;26430;48.818;9.244;2023-10-31T04:28:56;10.70;99.90
2447;DHT22;26430;48.818;9.244;2023-10-31T04:31:21;10.50;99.90
2447;DHT22;26430;48.818;9.244;2023-10-31T04:33:47;10.50;99.90
2447;DHT22;26430;48.818;9.244;2023-10-31T04:36:12;10.50;99.90
2447;DHT22;26430;48.818;9.244;2023-10-31T04:38:38;10.70;99.90
2447;DHT22;26430;48.818;9.244;2023-10-31T04:41:04;10.60;99.90
2447;DHT22;26430;48.818;9.244;2023-10-31T04:43:29;10.80;99.90
2447;DHT22;26430;48.818;9.244;2023-10-31T04:45:55;10.70;99.90
2447;DHT22;26430;48.818;9.244;2023-10-31T04:48:20;10.50;99.90
2447;DHT22;26430;48.818;9.244;2023-10-31T04:50:46;10.40;99.90
2447;DHT22;26430;48.818;9.244;2023-10-31T04:53:12;10.40;99.90
2447;DHT22;26430;48.818;9.244;2023-10-31T04:55:37;10.30;99.90
2447;DHT22;26430;48.818;9.244;2023-10-31T04:58:03;10.50;99.90
2447;DHT22;26430;48.818;9.244;2023-10-31T05:00:28;10.40;99.90
2447;DHT22;26430;48.818;9.244;2023-10-31T05:02:54;10.30;99.90
2447;DHT22;26430;48.818;9.244;2023-10-31T05:05:20;10.30;99.90
2447;DHT22;26430;48.818;9.244;2023-10-31T05:07:45;10.30;99.90
2447;DHT22;26430;48.818;9.244;2023-10-31T05:10:11;10.30;99.90
2447;DHT22;26430;48.818;9.244;2023-10-31T05:12:36;10.30;99.90
2447;DHT22;26430;48.818;9.244;2023-10-31T05:15:02;10.20;99.90
2447;DHT22;26430;48.818;9.244;2023-10-31T05:17:28;10.20;99.90
2447;DHT22;26430;48.818;9.244;2023-10-31T05:19:54;10.20;99.90
2447;DHT22;26430;48.818;9.244;2023-10-31T05:22:20;10.20;99.90
2447;DHT22;26430;48.818;9.244;2023-10-31T05:24:45;10.20;99.90
2447;DHT22;26430;48.818;9.244;2023-10-31T05:27:11;10.20;99.90
2447;DHT22;26430;48.818;9.244;2023-10-31T05:29:39;10.00;99.90
2447;DHT22;26430;48.818;9.244;2023-10-31T05:32:04;10.10;99.90
2447;DHT22;26430;48.818;9.244;2023-10-31T05:34:30;10.20;99.90
2447;DHT22;26430;48.818;9.244;2023-10-31T05:36:55;10.20;99.90
2447;DHT22;26430;48.818;9.244;2023-10-31T05:39:21;10.30;99.90
2447;DHT22;26430;48.818;9.244;2023-10-31T05:41:46;10.30;99.90
2447;DHT22;26430;48.818;9.244;2023-10-31T05:44:12;10.30;99.90
2447;DHT22;26430;48.818;9.244;2023-10-31T05:46:38;10.20;99.90
2447;DHT22;26430;48.818;9.244;2023-10-31T05:49:07;10.10;99.90
2447;DHT22;26430;48.818;9.244;2023-10-31T05:51:33;10.20;99.90
2447;DHT22;26430;48.818;9.244;2023-10-31T05:54:00;10.20;99.90
2447;DHT22;26430;48.818;9.244;2023-10-31T05:56:26;10.10;99.90
2447;DHT22;26430;48.818;9.244;2023-10-31T05:58:51;10.00;99.90
2447;DHT22;26430;48.818;9.244;2023-10-31T06:01:17;10.00;99.90
2447;DHT22;26430;48.818;9.244;2023-10-31T06:03:43;10.00;99.90
2447;DHT22;26430;48.818;9.244;2023-10-31T06:06:09;10.00;99.90
2447;DHT22;26430;48.818;9.244;2023-10-31T06:08:35;10.00;99.90
2447;DHT22;26430;48.818;9.244;2023-10-31T06:11:01;10.00;99.90
2447;DHT22;26430;48.818;9.244;2023-10-31T06:13:26;10.00;99.90
2447;DHT22;26430;48.818;9.244;2023-10-31T06:15:54;10.00;99.90
2447;DHT22;26430;48.818;9.244;2023-10-31T06:18:19;9.90;99.90
2447;DHT22;26430;48.818;9.244;2023-10-31T06:20:45;9.90;99.90
2447;DHT22;26430;48.818;9.244;2023-10-31T06:23:11;10.00;99.90
2447;DHT22;26430;48.818;9.244;2023-10-31T06:25:36;10.10;99.90
2447;DHT22;26430;48.818;9.244;2023-10-31T06:28:02;10.20;99.90
2447;DHT22;26430;48.818;9.244;2023-10-31T06:30:27;10.10;99.90
2447;DHT22;26430;48.818;9.244;2023-10-31T06:32:53;10.10;99.90
2447;DHT22;26430;48.818;9.244;2023-10-31T06:35:19;10.00;99.90
2447;DHT22;26430;48.818;9.244;2023-10-31T06:37:44;10.20;99.90
2447;DHT22;26430;48.818;9.244;2023-10-31T06:40:10;10.30;99.90
2447;DHT22;26430;48.818;9.244;2023-10-31T06:42:36;10.30;99.90
2447;DHT22;26430;48.818;9.244;2023-10-31T06:45:02;10.30;99.90
2447;DHT22;26430;48.818;9.244;2023-10-31T06:47:28;10.20;99.90
2447;DHT22;26430;48.818;9.244;2023-10-31T06:49:53;10.10;99.90
2447;DHT22;26430;48.818;9.244;2023-10-31T06:52:19;10.10;99.90
2447;DHT22;26430;48.818;9.244;2023-10-31T06:54:44;10.10;99.90
2447;DHT22;26430;48.818;9.244;2023-10-31T06:57:10;10.10;99.90
2447;DHT22;26430;48.818;9.244;2023-10-31T06:59:35;10.20;99.90
2447;DHT22;26430;48.818;9.244;2023-10-31T07:02:01;10.20;99.90
2447;DHT22;26430;48.818;9.244;2023-10-31T07:04:26;10.20;99.90
2447;DHT22;26430;48.818;9.244;2023-10-31T07:06:52;10.30;99.90
2447;DHT22;26430;48.818;9.244;2023-10-31T07:09:23;10.30;99.90
2447;DHT22;26430;48.818;9.244;2023-10-31T07:11:48;10.30;99.90
2447;DHT22;26430;48.818;9.244;2023-10-31T07:14:14;10.20;99.90
2447;DHT22;26430;48.818;9.244;2023-10-31T07:16:39;10.20;99.90
2447;DHT22;26430;48.818;9.244;2023-10-31T07:19:05;10.20;99.90
2447;DHT22;26430;48.818;9.244;2023-10-31T07:21:31;10.30;99.90
2447;DHT22;26430;48.818;9.244;2023-10-31T07:23:56;10.20;99.90
2447;DHT22;26430;48.818;9.244;2023-10-31T07:26:22;10.20;99.90
2447;DHT22;26430;48.818;9.244;2023-10-31T07:28:48;10.30;99.90
2447;DHT22;26430;48.818;9.244;2023-10-31T07:31:14;10.40;99.90
2447;DHT22;26430;48.818;9.244;2023-10-31T07:33:40;10.50;99.90
2447;DHT22;26430;48.818;9.244;2023-10-31T07:36:05;10.60;99.90
2447;DHT22;26430;48.818;9.244;2023-10-31T07:38:31;10.50;99.90
2447;DHT22;26430;48.818;9.244;2023-10-31T07:40:56;10.40;99.90
2447;DHT22;26430;48.818;9.244;2023-10-31T07:43:22;10.40;99.90
2447;DHT22;26430;48.818;9.244;2023-10-31T07:45:47;10.50;99.90
2447;DHT22;26430;48.818;9.244;2023-10-31T07:48:13;10.50;99.90
2447;DHT22;26430;48.818;9.244;2023-10-31T07:50:38;10.50;99.90
2447;DHT22;26430;48.818;9.244;2023-10-31T07:53:05;10.50;99.90
2447;DHT22;26430;48.818;9.244;2023-10-31T07:55:31;10.60;99.90
2447;DHT22;26430;48.818;9.244;2023-10-31T07:57:56;10.60;99.90
2447;DHT22;26430;48.818;9.244;2023-10-31T08:00:22;10.50;99.90
2447;DHT22;26430;48.818;9.244;2023-10-31T08:02:47;10.50;99.90
2447;DHT22;26430;48.818;9.244;2023-10-31T08:05:13;10.50;99.90
2447;DHT22;26430;48.818;9.244;2023-10-31T08:07:39;10.60;99.90
2447;DHT22;26430;48.818;9.244;2023-10-31T08:10:05;10.70;99.90
2447;DHT22;26430;48.818;9.244;2023-10-31T08:12:31;10.60;99.90
2447;DHT22;26430;48.818;9.244;2023-10-31T08:14:56;10.60;99.90
2447;DHT22;26430;48.818;9.244;2023-10-31T08:17:24;10.70;99.90
2447;DHT22;26430;48.818;9.244;2023-10-31T08:19:49;10.80;99.90
2447;DHT22;26430;48.818;9.244;2023-10-31T08:22:15;10.70;99.90
2447;DHT22;26430;48.818;9.244;2023-10-31T08:24:40;10.90;99.90
2447;DHT22;26430;48.818;9.244;2023-10-31T08:27:06;10.90;99.90
2447;DHT22;26430;48.818;9.244;2023-10-31T08:29:32;10.90;99.90
2447;DHT22;26430;48.818;9.244;2023-10-31T08:31:58;11.10;99.90
2447;DHT22;26430;48.818;9.244;2023-10-31T08:34:23;11.00;99.90
2447;DHT22;26430;48.818;9.244;2023-10-31T08:36:49;11.10;99.90
2447;DHT22;26430;48.818;9.244;2023-10-31T08:39:15;11.20;99.90
2447;DHT22;26430;48.818;9.244;2023-10-31T08:41:54;11.30;99.90
2447;DHT22;26430;48.818;9.244;2023-10-31T08:44:20;11.20;99.90
2447;DHT22;26430;48.818;9.244;2023-10-31T08:46:46;11.20;99.90
2447;DHT22;26430;48.818;9.244;2023-10-31T08:49:13;11.20;99.90
2447;DHT22;26430;48.818;9.244;2023-10-31T08:51:39;11.30;99.90
2447;DHT22;26430;48.818;9.244;2023-10-31T08:54:05;11.40;99.90
2447;DHT22;26430;48.818;9.244;2023-10-31T08:56:31;11.40;99.90
2447;DHT22;26430;48.818;9.244;2023-10-31T08:58:56;11.50;99.90
2447;DHT22;26430;48.818;9.244;2023-10-31T09:01:22;11.60;99.90
2447;DHT22;26430;48.818;9.244;2023-10-31T09:03:47;11.70;99.90
2447;DHT22;26430;48.818;9.244;2023-10-31T09:06:14;11.90;99.90
2447;DHT22;26430;48.818;9.244;2023-10-31T09:08:39;11.90;99.90
2447;DHT22;26430;48.818;9.244;2023-10-31T09:11:05;12.00;99.90
2447;DHT22;26430;48.818;9.244;2023-10-31T09:13:31;12.30;99.90
2447;DHT22;26430;48.818;9.244;2023-10-31T09:16:00;12.20;99.90
2447;DHT22;26430;48.818;9.244;2023-10-31T09:18:25;12.20;99.90
2447;DHT22;26430;48.818;9.244;2023-10-31T09:20:51;12.60;99.90
2447;DHT22;26430;48.818;9.244;2023-10-31T09:23:17;12.90;99.90
2447;DHT22;26430;48.818;9.244;2023-10-31T09:25:45;12.60;99.90
2447;DHT22;26430;48.818;9.244;2023-10-31T09:28:11;12.50;99.90
2447;DHT22;26430;48.818;9.244;2023-10-31T09:30:36;12.70;99.90
2447;DHT22;26430;48.818;9.244;2023-10-31T09:33:02;12.50;99.90
2447;DHT22;26430;48.818;9.244;2023-10-31T09:35:27;12.60;99.90
2447;DHT22;26430;48.818;9.244;2023-10-31T09:37:54;12.50;99.90
2447;DHT22;26430;48.818;9.244;2023-10-31T09:40:20;12.70;99.90
2447;DHT22;26430;48.818;9.244;2023-10-31T09:42:47;12.80;99.90
2447;DHT22;26430;48.818;9.244;2023-10-31T09:45:13;12.60;99.90
2447;DHT22;26430;48.818;9.244;2023-10-31T09:47:39;12.80;99.90
2447;DHT22;26430;48.818;9.244;2023-10-31T09:50:05;12.90;99.90
2447;DHT22;26430;48.818;9.244;2023-10-31T09:52:32;12.80;99.90
2447;DHT22;26430;48.818;9.244;2023-10-31T09:54:57;12.90;99.90
2447;DHT22;26430;48.818;9.244;2023-10-31T09:57:24;12.70;99.90
2447;DHT22;26430;48.818;9.244;2023-10-31T09:59:51;12.60;99.90
2447;DHT22;26430;48.818;9.244;2023-10-31T10:02:17;12.80;99.90
2447;DHT22;26430;48.818;9.244;2023-10-31T10:04:43;12.70;99.90
2447;DHT22;26430;48.818;9.244;2023-10-31T10:07:08;12.70;99.90
2447;DHT22;26430;48.818;9.244;2023-10-31T10:09:38;12.60;99.90
2447;DHT22;26430;48.818;9.244;2023-10-31T10:12:05;12.60;99.90
2447;DHT22;26430;48.818;9.244;2023-10-31T10:14:30;12.50;99.90
2447;DHT22;26430;48.818;9.244;2023-10-31T10:16:57;12.50;99.90
2447;DHT22;26430;48.818;9.244;2023-10-31T10:19:23;12.50;99.90
2447;DHT22;26430;48.818;9.244;2023-10-31T10:21:51;12.30;99.90
2447;DHT22;26430;48.818;9.244;2023-10-31T10:24:18;12.30;99.90
2447;DHT22;26430;48.818;9.244;2023-10-31T10:26:44;12.30;99.90
2447;DHT22;26430;48.818;9.244;2023-10-31T10:29:10;12.10;99.90
2447;DHT22;26430;48.818;9.244;2023-10-31T10:31:35;12.30;99.90
2447;DHT22;26430;48.818;9.244;2023-10-31T10:34:01;12.10;99.90
2447;DHT22;26430;48.818;9.244;2023-10-31T10:36:27;12.00;99.90
2447;DHT22;26430;48.818;9.244;2023-10-31T10:38:56;12.00;99.90
2447;DHT22;26430;48.818;9.244;2023-10-31T10:41:25;12.10;99.90
2447;DHT22;26430;48.818;9.244;2023-10-31T10:43:56;12.10;99.90
2447;DHT22;26430;48.818;9.244;2023-10-31T10:46:24;12.10;99.90
2447;DHT22;26430;48.818;9.244;2023-10-31T10:48:55;12.20;99.90
2447;DHT22;26430;48.818;9.244;2023-10-31T10:51:28;12.10;99.90
2447;DHT22;26430;48.818;9.244;2023-10-31T10:54:07;12.10;99.90
2447;DHT22;26430;48.818;9.244;2023-10-31T10:56:39;12.10;99.90
2447;DHT22;26430;48.818;9.244;2023-10-31T10:59:16;12.00;99.90
2447;DHT22;26430;48.818;9.244;2023-10-31T11:01:46;12.00;99.90
2447;DHT22;26430;48.818;9.244;2023-10-31T11:04:12;12.10;99.90
2447;DHT22;26430;48.818;9.244;2023-10-31T11:06:39;12.20;99.90
2447;DHT22;26430;48.818;9.244;2023-10-31T11:09:05;12.20;99.90
2447;DHT22;26430;48.818;9.244;2023-10-31T11:11:32;12.20;99.90
2447;DHT22;26430;48.818;9.244;2023-10-31T11:13:57;12.20;99.90
2447;DHT22;26430;48.818;9.244;2023-10-31T11:16:50;12.30;99.90
2447;DHT22;26430;48.818;9.244;2023-10-31T11:19:15;12.40;99.90
2447;DHT22;26430;48.818;9.244;2023-10-31T11:22:01;12.40;99.90
2447;DHT22;26430;48.818;9.244;2023-10-31T11:24:28;12.40;99.90
2447;DHT22;26430;48.818;9.244;2023-10-31T11:27:00;12.40;99.90
2447;DHT22;26430;48.818;9.244;2023-10-31T11:29:25;12.30;99.90
2447;DHT22;26430;48.818;9.244;2023-10-31T11:31:51;12.40;99.90
2447;DHT22;26430;48.818;9.244;2023-10-31T11:34:19;12.40;99.90
2447;DHT22;26430;48.818;9.244;2023-10-31T11:36:46;12.50;99.90
2447;DHT22;26430;48.818;9.244;2023-10-31T11:39:19;12.60;99.90
2447;DHT22;26430;48.818;9.244;2023-10-31T11:41:50;12.70;99.90
2447;DHT22;26430;48.818;9.244;2023-10-31T11:44:22;12.60;99.90
2447;DHT22;26430;48.818;9.244;2023-10-31T11:46:50;12.70;99.90
2447;DHT22;26430;48.818;9.244;2023-10-31T11:49:18;12.60;99.90
2447;DHT22;26430;48.818;9.244;2023-10-31T11:51:46;12.80;99.90
2447;DHT22;26430;48.818;9.244;2023-10-31T11:54:13;13.00;99.90
2447;DHT22;26430;48.818;9.244;2023-10-31T11:56:39;12.70;99.90
2447;DHT22;26430;48.818;9.244;2023-10-31T11:59:05;12.80;99.90
2447;DHT22;26430;48.818;9.244;2023-10-31T12:01:34;12.80;99.90
2447;DHT22;26430;48.818;9.244;2023-10-31T12:04:08;12.90;99.90
2447;DHT22;26430;48.818;9.244;2023-10-31T12:06:34;12.80;99.90
2447;DHT22;26430;48.818;9.244;2023-10-31T12:09:00;12.80;99.90
2447;DHT22;26430;48.818;9.244;2023-10-31T12:11:26;12.80;99.90
2447;DHT22;26430;48.818;9.244;2023-10-31T12:13:56;12.80;99.90
2447;DHT22;26430;48.818;9.244;2023-10-31T12:16:30;12.70;99.90
2447;DHT22;26430;48.818;9.244;2023-10-31T12:19:03;12.80;99.90
2447;DHT22;26430;48.818;9.244;2023-10-31T12:21:44;12.90;99.90
2447;DHT22;26430;48.818;9.244;2023-10-31T12:24:15;13.10;99.90
2447;DHT22;26430;48.818;9.244;2023-10-31T12:26:41;13.00;99.90
2447;DHT22;26430;48.818;9.244;2023-10-31T12:31:33;13.00;99.90
2447;DHT22;26430;48.818;9.244;2023-10-31T12:34:07;13.30;99.90
2447;DHT22;26430;48.818;9.244;2023-10-31T12:36:35;13.20;99.90
2447;DHT22;26430;48.818;9.244;2023-10-31T12:39:02;13.30;99.90
2447;DHT22;26430;48.818;9.244;2023-10-31T12:41:28;13.30;99.90
2447;DHT22;26430;48.818;9.244;2023-10-31T12:43:54;13.10;99.90
2447;DHT22;26430;48.818;9.244;2023-10-31T12:46:27;13.20;99.90
2447;DHT22;26430;48.818;9.244;2023-10-31T12:48:55;13.40;99.90
2447;DHT22;26430;48.818;9.244;2023-10-31T12:51:20;13.50;99.90
2447;DHT22;26430;48.818;9.244;2023-10-31T12:53:50;13.30;99.90
2447;DHT22;26430;48.818;9.244;2023-10-31T12:56:38;13.30;99.90
2447;DHT22;26430;48.818;9.244;2023-10-31T12:59:05;13.30;99.90
2447;DHT22;26430;48.818;9.244;2023-10-31T13:01:34;13.10;99.90
2447;DHT22;26430;48.818;9.244;2023-10-31T13:04:00;12.90;99.90
2447;DHT22;26430;48.818;9.244;2023-10-31T13:06:26;12.70;99.90
2447;DHT22;26430;48.818;9.244;2023-10-31T13:08:55;12.80;99.90
2447;DHT22;26430;48.818;9.244;2023-10-31T13:11:22;12.70;99.90
2447;DHT22;26430;48.818;9.244;2023-10-31T13:13:52;12.60;99.90
2447;DHT22;26430;48.818;9.244;2023-10-31T13:16:18;12.70;99.90
2447;DHT22;26430;48.818;9.244;2023-10-31T13:18:43;12.60;99.90
2447;DHT22;26430;48.818;9.244;2023-10-31T13:21:09;12.70;99.90
2447;DHT22;26430;48.818;9.244;2023-10-31T13:23:36;12.70;99.90
2447;DHT22;26430;48.818;9.244;2023-10-31T13:26:04;12.70;99.90
2447;DHT22;26430;48.818;9.244;2023-10-31T13:28:29;12.60;99.90
2447;DHT22;26430;48.818;9.244;2023-10-31T13:30:57;12.70;99.90
2447;DHT22;26430;48.818;9.244;2023-10-31T13:33:23;12.80;99.90
2447;DHT22;26430;48.818;9.244;2023-10-31T13:35:48;13.00;99.90
2447;DHT22;26430;48.818;9.244;2023-10-31T13:38:14;13.20;99.90
2447;DHT22;26430;48.818;9.244;2023-10-31T13:40:39;13.30;99.90
2447;DHT22;26430;48.818;9.244;2023-10-31T13:43:05;13.30;99.90
2447;DHT22;26430;48.818;9.244;2023-10-31T13:45:31;13.10;99.90
2447;DHT22;26430;48.818;9.244;2023-10-31T13:47:56;13.20;99.90
2447;DHT22;26430;48.818;9.244;2023-10-31T13:50:22;13.10;99.90
2447;DHT22;26430;48.818;9.244;2023-10-31T13:52:49;13.20;99.90
2447;DHT22;26430;48.818;9.244;2023-10-31T13:55:14;13.00;99.90
2447;DHT22;26430;48.818;9.244;2023-10-31T13:57:40;13.10;99.90
2447;DHT22;26430;48.818;9.244;2023-10-31T14:00:06;13.00;99.90
2447;DHT22;26430;48.818;9.244;2023-10-31T14:02:34;13.10;99.90
2447;DHT22;26430;48.818;9.244;2023-10-31T14:05:01;13.10;99.90
2447;DHT22;26430;48.818;9.244;2023-10-31T14:07:26;13.10;99.90
2447;DHT22;26430;48.818;9.244;2023-10-31T14:09:52;13.20;99.90
2447;DHT22;26430;48.818;9.244;2023-10-31T14:12:18;13.10;99.90
2447;DHT22;26430;48.818;9.244;2023-10-31T14:14:44;13.20;99.90
2447;DHT22;26430;48.818;9.244;2023-10-31T14:17:13;13.30;99.90
2447;DHT22;26430;48.818;9.244;2023-10-31T14:19:39;13.30;99.90
2447;DHT22;26430;48.818;9.244;2023-10-31T14:22:04;13.30;99.90
2447;DHT22;26430;48.818;9.244;2023-10-31T14:24:30;13.20;99.90
2447;DHT22;26430;48.818;9.244;2023-10-31T14:26:57;13.40;99.90
2447;DHT22;26430;48.818;9.244;2023-10-31T14:29:24;13.50;99.90
2447;DHT22;26430;48.818;9.244;2023-10-31T14:31:50;13.50;99.90
2447;DHT22;26430;48.818;9.244;2023-10-31T14:34:15;13.50;99.90
2447;DHT22;26430;48.818;9.244;2023-10-31T14:36:41;13.50;99.90
2447;DHT22;26430;48.818;9.244;2023-10-31T14:39:07;13.30;99.90
2447;DHT22;26430;48.818;9.244;2023-10-31T14:41:33;13.20;99.90
2447;DHT22;26430;48.818;9.244;2023-10-31T14:43:59;13.20;99.90
2447;DHT22;26430;48.818;9.244;2023-10-31T14:46:26;13.20;99.90
2447;DHT22;26430;48.818;9.244;2023-10-31T14:48:52;13.00;99.90
2447;DHT22;26430;48.818;9.244;2023-10-31T14:51:18;13.10;99.90
2447;DHT22;26430;48.818;9.244;2023-10-31T14:53:44;13.00;99.90
2447;DHT22;26430;48.818;9.244;2023-10-31T14:56:09;13.00;99.90
2447;DHT22;26430;48.818;9.244;2023-10-31T14:58:35;13.10;99.90
2447;DHT22;26430;48.818;9.244;2023-10-31T15:01:01;13.30;99.90
2447;DHT22;26430;48.818;9.244;2023-10-31T15:03:26;13.40;99.90
2447;DHT22;26430;48.818;9.244;2023-10-31T15:05:52;13.40;99.90
2447;DHT22;26430;48.818;9.244;2023-10-31T15:08:18;13.60;99.90
2447;DHT22;26430;48.818;9.244;2023-10-31T15:10:43;13.70;99.90
2447;DHT22;26430;48.818;9.244;2023-10-31T15:13:09;13.90;99.90
2447;DHT22;26430;48.818;9.244;2023-10-31T15:15:35;13.60;99.90
2447;DHT22;26430;48.818;9.244;2023-10-31T15:18:00;13.40;99.90
2447;DHT22;26430;48.818;9.244;2023-10-31T15:20:26;13.20;99.90
2447;DHT22;26430;48.818;9.244;2023-10-31T15:22:52;12.90;99.90
2447;DHT22;26430;48.818;9.244;2023-10-31T15:25:18;12.60;99.90
2447;DHT22;26430;48.818;9.244;2023-10-31T15:27:44;12.70;99.90
2447;DHT22;26430;48.818;9.244;2023-10-31T15:30:10;12.60;99.90
2447;DHT22;26430;48.818;9.244;2023-10-31T15:32:36;12.60;99.90
2447;DHT22;26430;48.818;9.244;2023-10-31T15:35:04;12.50;99.90
2447;DHT22;26430;48.818;9.244;2023-10-31T15:37:31;12.50;99.90
2447;DHT22;26430;48.818;9.244;2023-10-31T15:39:56;12.40;99.90
2447;DHT22;26430;48.818;9.244;2023-10-31T15:42:23;12.40;99.90
2447;DHT22;26430;48.818;9.244;2023-10-31T15:44:48;12.30;99.90